createdAt,value
2022-10-05T00:00:24.379Z,9.719139
2022-10-05T00:01:24.425Z,9.719173
2022-10-05T00:02:24.368Z,9.719225
2022-10-05T00:03:24.351Z,9.719154
2022-10-05T00:04:24.358Z,9.719221
2022-10-05T00:05:24.364Z,9.719243
2022-10-05T00:06:24.333Z,9.719174
2022-10-05T00:07:24.365Z,9.719200
2022-10-05T00:08:24.295Z,9.719214
2022-10-05T00:09:24.281Z,9.719213
2022-10-05T00:10:24.285Z,9.719189
2022-10-05T00:11:24.287Z,9.719170
2022-10-05T00:12:24.271Z,9.719253
2022-10-05T00:13:24.256Z,9.719301
2022-10-05T00:14:24.236Z,9.719241
2022-10-05T00:15:24.250Z,9.719244
2022-10-05T00:16:24.312Z,9.719256
2022-10-05T00:17:24.214Z,9.719259
2022-10-05T00:18:24.198Z,9.719181
2022-10-05T00:19:24.183Z,9.719152
2022-10-05T00:20:24.195Z,9.719236
2022-10-05T00:21:24.163Z,9.719289
2022-10-05T00:22:24.163Z,9.719204
2022-10-05T00:23:24.164Z,9.719219
2022-10-05T00:24:24.136Z,9.719275
2022-10-05T00:25:24.154Z,9.719193
2022-10-05T00:26:24.115Z,9.719192
2022-10-05T00:27:24.134Z,9.719318
2022-10-05T00:28:24.146Z,9.719175
2022-10-05T00:29:24.103Z,9.719106
2022-10-05T00:30:24.092Z,9.719164
2022-10-05T00:31:24.129Z,9.719040
2022-10-05T00:32:24.072Z,9.719186
2022-10-05T00:33:24.053Z,9.719164
2022-10-05T00:34:24.042Z,9.719232
2022-10-05T00:35:24.030Z,9.719112
2022-10-05T00:36:24.025Z,9.719149
2022-10-05T00:37:24.024Z,9.719300
2022-10-05T00:38:24.006Z,9.719338
2022-10-05T00:39:23.991Z,9.719265
2022-10-05T00:40:23.994Z,9.719172
2022-10-05T00:41:23.974Z,9.719181
2022-10-05T00:42:23.974Z,9.719258
2022-10-05T00:43:23.946Z,9.719324
2022-10-05T00:44:23.943Z,9.719473
2022-10-05T00:45:23.951Z,9.719378
2022-10-05T00:46:23.982Z,9.719212
2022-10-05T00:47:23.912Z,9.719136
2022-10-05T00:48:23.911Z,9.719166
2022-10-05T00:49:23.909Z,9.719088
2022-10-05T00:50:23.874Z,9.719174
2022-10-05T00:51:23.876Z,9.719086
2022-10-05T00:52:23.891Z,9.719114
2022-10-05T00:53:23.854Z,9.719188
2022-10-05T00:54:23.855Z,9.719390
2022-10-05T00:55:23.835Z,9.719274
2022-10-05T00:56:23.826Z,9.719298
2022-10-05T00:57:23.839Z,9.719193
2022-10-05T00:58:23.806Z,9.719156
2022-10-05T00:59:23.784Z,9.719126
2022-10-05T01:00:24.796Z,9.719140
2022-10-05T01:01:23.846Z,9.719204
2022-10-05T01:02:23.849Z,9.719141
2022-10-05T01:03:23.755Z,9.719123
2022-10-05T01:04:23.742Z,9.719206
2022-10-05T01:05:23.733Z,9.719247
2022-10-05T01:06:23.737Z,9.719234
2022-10-05T01:07:23.739Z,9.719221
2022-10-05T01:08:24.701Z,9.719197
2022-10-05T01:09:23.712Z,9.719233
2022-10-05T01:10:23.693Z,9.719341
2022-10-05T01:11:23.679Z,9.719465
2022-10-05T01:12:23.688Z,9.719384
2022-10-05T01:13:23.689Z,9.719440
2022-10-05T01:14:23.660Z,9.719358
2022-10-05T01:15:23.643Z,9.719290
2022-10-05T01:16:23.683Z,9.719272
2022-10-05T01:17:23.619Z,9.719322
2022-10-05T01:18:23.628Z,9.719385
2022-10-05T01:19:23.613Z,9.719476
2022-10-05T01:20:23.605Z,9.719370
2022-10-05T01:21:23.581Z,9.719372
2022-10-05T01:22:23.573Z,9.719407
2022-10-05T01:23:23.562Z,9.719352
2022-10-05T01:24:23.562Z,9.719286
2022-10-05T01:25:23.544Z,9.719268
2022-10-05T01:26:23.554Z,9.719304
2022-10-05T01:27:23.523Z,9.719202
2022-10-05T01:28:23.692Z,9.719086
2022-10-05T01:29:23.520Z,9.719124
2022-10-05T01:30:23.490Z,9.719164
2022-10-05T01:31:23.568Z,9.719325
2022-10-05T01:32:23.503Z,9.719376
2022-10-05T01:33:23.475Z,9.719386
2022-10-05T01:34:23.450Z,9.719292
2022-10-05T01:35:23.433Z,9.719295
2022-10-05T01:36:23.452Z,9.719172
2022-10-05T01:37:23.418Z,9.719100
2022-10-05T01:38:23.414Z,9.719161
2022-10-05T01:39:23.402Z,9.719200
2022-10-05T01:40:23.387Z,9.719237
2022-10-05T01:41:23.396Z,9.719282
2022-10-05T01:42:23.395Z,9.719205
2022-10-05T01:43:23.361Z,9.719292
2022-10-05T01:44:23.348Z,9.719241
2022-10-05T01:45:23.343Z,9.719297
2022-10-05T01:46:23.374Z,9.719276
2022-10-05T01:47:23.393Z,9.719300
2022-10-05T01:48:23.312Z,9.719279
2022-10-05T01:49:23.307Z,9.719326
2022-10-05T01:50:23.288Z,9.719315
2022-10-05T01:51:23.277Z,9.719338
2022-10-05T01:52:23.294Z,9.719430
2022-10-05T01:53:23.262Z,9.719481
2022-10-05T01:54:23.248Z,9.719255
2022-10-05T01:55:23.235Z,9.719260
2022-10-05T01:56:23.233Z,9.719051
2022-10-05T01:57:23.220Z,9.719311
2022-10-05T01:58:23.240Z,9.719278
2022-10-05T01:59:23.203Z,9.719337
2022-10-05T02:00:23.192Z,9.719063
2022-10-05T02:01:23.243Z,9.719092
2022-10-05T02:02:23.230Z,9.719056
2022-10-05T02:03:23.185Z,9.719129
2022-10-05T02:04:43.582Z,9.719224
2022-10-05T02:05:25.145Z,9.719300
2022-10-05T02:06:23.145Z,9.719239
2022-10-05T02:07:23.118Z,9.719239
2022-10-05T02:08:23.116Z,9.719239
2022-10-05T02:09:23.123Z,9.719239
2022-10-05T02:10:23.089Z,9.719239
2022-10-05T02:11:23.086Z,9.719325
2022-10-05T02:12:23.073Z,9.719239
2022-10-05T02:13:23.061Z,9.719110
2022-10-05T02:14:23.071Z,9.719111
2022-10-05T02:15:23.050Z,9.718966
2022-10-05T02:16:23.103Z,9.719029
2022-10-05T02:17:23.030Z,9.718904
2022-10-05T02:18:23.038Z,9.719043
2022-10-05T02:19:23.009Z,9.718981
2022-10-05T02:20:23.013Z,9.718915
2022-10-05T02:21:22.980Z,9.718819
2022-10-05T02:22:54.887Z,9.719057
2022-10-05T02:23:22.976Z,9.718855
2022-10-05T02:24:22.955Z,9.719151
2022-10-05T02:25:22.945Z,9.719202
2022-10-05T02:26:22.938Z,9.719172
2022-10-05T02:27:22.934Z,9.719177
2022-10-05T02:28:22.975Z,9.719111
2022-10-05T02:29:22.906Z,9.719112
2022-10-05T02:30:22.895Z,9.719128
2022-10-05T02:31:22.952Z,9.719157
2022-10-05T02:32:22.880Z,9.719141
2022-10-05T02:33:22.883Z,9.719075
2022-10-05T02:34:22.851Z,9.719060
2022-10-05T02:35:22.839Z,9.719177
2022-10-05T02:36:22.837Z,9.719090
2022-10-05T02:37:22.829Z,9.719039
2022-10-05T02:38:22.833Z,9.719080
2022-10-05T02:39:22.813Z,9.719075
2022-10-05T02:40:22.809Z,9.719262
2022-10-05T02:41:22.801Z,9.719339
2022-10-05T02:42:22.790Z,9.719205
2022-10-05T02:43:22.765Z,9.719247
2022-10-05T02:44:22.778Z,9.719118
2022-10-05T02:45:22.747Z,9.719162
2022-10-05T02:46:22.803Z,9.719160
2022-10-05T02:47:22.743Z,9.719076
2022-10-05T02:48:22.715Z,9.719178
2022-10-05T02:49:22.705Z,9.719162
2022-10-05T02:50:22.689Z,9.719193
2022-10-05T02:51:22.698Z,9.718944
2022-10-05T02:52:22.684Z,9.719098
2022-10-05T02:53:22.688Z,9.719215
2022-10-05T02:54:22.650Z,9.719037
2022-10-05T02:55:22.640Z,9.719125
2022-10-05T02:56:22.640Z,9.719091
2022-10-05T02:57:22.661Z,9.719214
2022-10-05T02:58:22.609Z,9.719137
2022-10-05T02:59:22.592Z,9.719147
2022-10-05T03:00:22.601Z,9.719234
2022-10-05T03:01:22.666Z,9.719136
2022-10-05T03:02:22.685Z,9.719267
2022-10-05T03:03:22.561Z,9.719241
2022-10-05T03:04:22.553Z,9.719425
2022-10-05T03:05:22.543Z,9.719408
2022-10-05T03:06:22.536Z,9.719464
2022-10-05T03:07:22.536Z,9.719481
2022-10-05T03:08:22.517Z,9.719331
2022-10-05T03:09:22.527Z,9.719316
2022-10-05T03:10:22.489Z,9.719460
2022-10-05T03:11:22.491Z,9.719455
2022-10-05T03:12:22.492Z,9.719354
2022-10-05T03:13:22.456Z,9.719350
2022-10-05T03:14:22.451Z,9.719361
2022-10-05T03:15:22.471Z,9.719410
2022-10-05T03:16:22.481Z,9.719436
2022-10-05T03:17:22.408Z,9.719307
2022-10-05T03:18:26.285Z,9.719246
2022-10-05T03:19:23.401Z,9.719236
2022-10-05T03:20:22.404Z,9.719306
2022-10-05T03:21:22.379Z,9.719311
2022-10-05T03:22:22.365Z,9.719259
2022-10-05T03:23:22.356Z,9.719273
2022-10-05T03:24:22.350Z,9.719243
2022-10-05T03:25:22.341Z,9.719249
2022-10-05T03:26:22.337Z,9.719247
2022-10-05T03:27:22.318Z,9.719295
2022-10-05T03:28:22.343Z,9.719228
2022-10-05T03:29:22.300Z,9.719230
2022-10-05T03:30:22.283Z,9.719201
2022-10-05T03:31:22.338Z,9.719260
2022-10-05T03:32:22.263Z,9.719264
2022-10-05T03:33:22.255Z,9.719265
2022-10-05T03:34:22.239Z,9.719275
2022-10-05T03:35:22.263Z,9.719270
2022-10-05T03:36:22.213Z,9.719314
2022-10-05T03:37:22.218Z,9.719306
2022-10-05T03:38:22.208Z,9.719279
2022-10-05T03:39:22.195Z,9.719337
2022-10-05T03:40:22.200Z,9.719318
2022-10-05T03:41:22.176Z,9.719336
2022-10-05T03:42:22.163Z,9.719248
2022-10-05T03:43:22.157Z,9.719310
2022-10-05T03:44:22.149Z,9.719348
2022-10-05T03:45:22.130Z,9.719363
2022-10-05T03:46:22.194Z,9.719352
2022-10-05T03:47:22.109Z,9.719284
2022-10-05T03:48:22.116Z,9.719259
2022-10-05T03:49:22.088Z,9.719311
2022-10-05T03:50:22.101Z,9.719362
2022-10-05T03:51:22.069Z,9.719214
2022-10-05T03:52:22.076Z,9.719202
2022-10-05T03:53:22.056Z,9.719165
2022-10-05T03:54:22.040Z,9.719266
2022-10-05T03:55:22.038Z,9.719260
2022-10-05T03:56:22.022Z,9.719151
2022-10-05T03:57:22.043Z,9.719191
2022-10-05T03:58:21.993Z,9.719152
2022-10-05T03:59:21.984Z,9.719244
2022-10-05T04:00:21.979Z,9.719225
2022-10-05T04:01:22.035Z,9.719151
2022-10-05T04:02:22.011Z,9.719081
2022-10-05T04:03:21.949Z,9.719069
2022-10-05T04:04:21.937Z,9.719154
2022-10-05T04:05:21.948Z,9.719290
2022-10-05T04:06:21.911Z,9.718979
2022-10-05T04:07:21.905Z,9.719050
2022-10-05T04:08:21.891Z,9.719006
2022-10-05T04:09:21.883Z,9.719030
2022-10-05T04:10:21.893Z,9.719171
2022-10-05T04:11:21.874Z,9.719174
2022-10-05T04:12:21.915Z,9.719281
2022-10-05T04:13:21.843Z,9.719213
2022-10-05T04:14:21.825Z,9.719252
2022-10-05T04:15:21.819Z,9.719172
2022-10-05T04:16:21.860Z,9.718999
2022-10-05T04:17:21.820Z,9.719108
2022-10-05T04:18:21.789Z,9.719094
2022-10-05T04:19:21.777Z,9.719166
2022-10-05T04:20:21.782Z,9.719054
2022-10-05T04:21:23.941Z,9.719095
2022-10-05T04:22:22.752Z,9.719182
2022-10-05T04:23:21.744Z,9.719167
2022-10-05T04:24:21.724Z,9.719222
2022-10-05T04:25:21.722Z,9.719265
2022-10-05T04:26:21.720Z,9.719249
2022-10-05T04:27:21.701Z,9.719182
2022-10-05T04:28:21.728Z,9.719181
2022-10-05T04:29:21.676Z,9.719267
2022-10-05T04:30:21.671Z,9.719347
2022-10-05T04:31:21.702Z,9.719331
2022-10-05T04:32:21.635Z,9.719272
2022-10-05T04:33:21.643Z,9.719378
2022-10-05T04:34:21.643Z,9.719337
2022-10-05T04:35:21.613Z,9.719249
2022-10-05T04:36:21.645Z,9.719287
2022-10-05T04:37:21.608Z,9.719187
2022-10-05T04:38:21.585Z,9.719263
2022-10-05T04:39:21.581Z,9.719273
2022-10-05T04:40:21.568Z,9.719188
2022-10-05T04:41:21.576Z,9.719180
2022-10-05T04:42:21.545Z,9.719215
2022-10-05T04:43:21.540Z,9.719239
2022-10-05T04:44:21.531Z,9.719236
2022-10-05T04:45:21.521Z,9.719254
2022-10-05T04:46:21.569Z,9.719218
2022-10-05T04:47:21.511Z,9.719228
2022-10-05T04:48:21.504Z,9.719185
2022-10-05T04:49:21.464Z,9.719169
2022-10-05T04:50:21.477Z,9.719296
2022-10-05T04:51:21.468Z,9.719302
2022-10-05T04:52:21.448Z,9.719202
2022-10-05T04:53:21.457Z,9.719223
2022-10-05T04:54:21.443Z,9.719248
2022-10-05T04:55:21.414Z,9.719183
2022-10-05T04:56:21.412Z,9.719181
2022-10-05T04:57:21.399Z,9.719151
2022-10-05T04:58:21.412Z,9.719164
2022-10-05T04:59:21.403Z,9.719204
2022-10-05T05:00:21.371Z,9.719175
2022-10-05T05:01:21.396Z,9.719387
2022-10-05T05:02:21.374Z,9.719307
2022-10-05T05:03:21.382Z,9.719111
2022-10-05T05:04:21.332Z,9.719185
2022-10-05T05:05:21.327Z,9.719402
2022-10-05T05:06:21.313Z,9.719234
2022-10-05T05:07:21.328Z,9.719408
2022-10-05T05:08:21.286Z,9.719318
2022-10-05T05:09:21.284Z,9.719249
2022-10-05T05:10:21.268Z,9.719195
2022-10-05T05:11:24.529Z,9.719316
2022-10-05T05:12:22.313Z,9.719221
2022-10-05T05:13:21.243Z,9.719161
2022-10-05T05:14:21.243Z,9.719275
2022-10-05T05:15:21.268Z,9.719284
2022-10-05T05:16:21.304Z,9.719207
2022-10-05T05:17:21.200Z,9.719210
2022-10-05T05:18:21.217Z,9.719157
2022-10-05T05:19:21.192Z,9.719294
2022-10-05T05:20:21.176Z,9.719232
2022-10-05T05:21:21.159Z,9.718786
2022-10-05T05:22:21.141Z,9.719112
2022-10-05T05:23:21.154Z,9.719488
2022-10-05T05:24:21.131Z,9.719261
2022-10-05T05:25:21.117Z,9.719352
2022-10-05T05:26:21.117Z,9.719409
2022-10-05T05:27:21.091Z,9.719321
2022-10-05T05:28:21.160Z,9.719305
2022-10-05T05:29:21.081Z,9.719307
2022-10-05T05:30:21.065Z,9.719230
2022-10-05T05:31:21.315Z,9.719091
2022-10-05T05:32:21.051Z,9.719290
2022-10-05T05:33:21.059Z,9.719258
2022-10-05T05:34:21.043Z,9.719343
2022-10-05T05:35:21.023Z,9.719136
2022-10-05T05:36:23.432Z,9.718673
2022-10-05T05:37:21.990Z,9.718827
2022-10-05T05:38:21.036Z,9.719192
2022-10-05T05:39:20.974Z,9.718972
2022-10-05T05:40:20.967Z,9.719116
2022-10-05T05:41:20.948Z,9.718968
2022-10-05T05:42:20.952Z,9.719213
2022-10-05T05:43:20.936Z,9.719283
2022-10-05T05:44:20.941Z,9.719174
2022-10-05T05:45:20.922Z,9.719080
2022-10-05T05:46:21.511Z,9.719411
2022-10-05T05:47:20.967Z,9.719553
2022-10-05T05:48:20.897Z,9.719419
2022-10-05T05:49:20.894Z,9.719105
2022-10-05T05:50:20.864Z,9.719583
2022-10-05T05:51:20.872Z,9.719459
2022-10-05T05:52:20.852Z,9.719149
2022-10-05T05:53:20.871Z,9.719187
2022-10-05T05:54:20.826Z,9.719302
2022-10-05T05:55:20.875Z,9.719094
2022-10-05T05:56:20.839Z,9.719305
2022-10-05T05:57:20.803Z,9.719145
2022-10-05T05:58:20.787Z,9.719219
2022-10-05T05:59:20.776Z,9.719329
2022-10-05T06:00:20.765Z,9.719463
2022-10-05T06:01:32.734Z,9.719300
2022-10-05T06:02:21.849Z,9.719283
2022-10-05T06:03:20.872Z,9.719341
2022-10-05T06:04:20.727Z,9.719382
2022-10-05T06:05:20.712Z,9.719336
2022-10-05T06:06:20.707Z,9.719185
2022-10-05T06:07:20.721Z,9.719263
2022-10-05T06:08:20.692Z,9.719229
2022-10-05T06:09:20.676Z,9.718989
2022-10-05T06:10:20.670Z,9.719054
2022-10-05T06:11:20.676Z,9.718984
2022-10-05T06:12:20.644Z,9.719016
2022-10-05T06:13:20.631Z,9.719212
2022-10-05T06:14:20.612Z,9.719240
2022-10-05T06:15:20.612Z,9.719189
2022-10-05T06:16:20.675Z,9.719213
2022-10-05T06:17:20.593Z,9.719111
2022-10-05T06:18:20.589Z,9.719264
2022-10-05T06:19:20.591Z,9.719199
2022-10-05T06:20:20.557Z,9.719241
2022-10-05T06:21:20.575Z,9.718926
2022-10-05T06:22:20.562Z,9.718992
2022-10-05T06:23:20.533Z,9.719193
2022-10-05T06:24:20.541Z,9.719074
2022-10-05T06:25:20.515Z,9.719046
2022-10-05T06:26:20.504Z,9.718980
2022-10-05T06:27:20.493Z,9.719051
2022-10-05T06:28:20.536Z,9.719131
2022-10-05T06:29:21.503Z,9.719256
2022-10-05T06:30:20.468Z,9.719197
2022-10-05T06:31:20.514Z,9.719258
2022-10-05T06:32:20.462Z,9.719326
2022-10-05T06:33:20.445Z,9.719152
2022-10-05T06:34:20.467Z,9.719268
2022-10-05T06:35:20.425Z,9.719488
2022-10-05T06:36:20.418Z,9.719469
2022-10-05T06:37:20.398Z,9.719192
2022-10-05T06:38:20.392Z,9.719063
2022-10-05T06:39:20.388Z,9.719154
2022-10-05T06:40:20.412Z,9.719334
2022-10-05T06:41:20.367Z,9.719245
2022-10-05T06:42:20.356Z,9.719097
2022-10-05T06:43:20.338Z,9.719181
2022-10-05T06:44:20.333Z,9.719432
2022-10-05T06:45:20.353Z,9.719487
2022-10-05T06:46:20.375Z,9.719464
2022-10-05T06:47:20.327Z,9.719409
2022-10-05T06:48:20.295Z,9.719345
2022-10-05T06:49:20.286Z,9.719138
2022-10-05T06:50:20.272Z,9.719121
2022-10-05T06:51:20.272Z,9.719231
2022-10-05T06:52:20.241Z,9.719266
2022-10-05T06:53:20.235Z,9.719213
2022-10-05T06:54:20.233Z,9.719337
2022-10-05T06:55:20.247Z,9.719269
2022-10-05T06:56:20.209Z,9.719173
2022-10-05T06:57:20.198Z,9.719352
2022-10-05T06:58:20.191Z,9.719347
2022-10-05T06:59:20.200Z,9.719223
2022-10-05T07:00:20.181Z,9.719214
2022-10-05T07:01:20.220Z,9.719122
2022-10-05T07:02:20.201Z,9.719069
2022-10-05T07:03:20.133Z,9.719302
2022-10-05T07:04:20.152Z,9.719244
2022-10-05T07:05:20.130Z,9.719219
2022-10-05T07:06:20.117Z,9.719135
2022-10-05T07:07:20.155Z,9.719055
2022-10-05T07:08:20.095Z,9.719112
2022-10-05T07:09:20.076Z,9.719048
2022-10-05T07:10:20.075Z,9.719181
2022-10-05T07:11:20.059Z,9.719107
2022-10-05T07:12:20.084Z,9.719121
2022-10-05T07:13:20.066Z,9.719097
2022-10-05T07:14:20.052Z,9.719171
2022-10-05T07:15:20.025Z,9.719287
2022-10-05T07:16:20.063Z,9.719159
2022-10-05T07:17:20.003Z,9.719016
2022-10-05T07:18:20.046Z,9.719093
2022-10-05T07:19:19.971Z,9.718938
2022-10-05T07:20:19.964Z,9.719210
2022-10-05T07:21:19.964Z,9.719180
2022-10-05T07:22:19.956Z,9.719167
2022-10-05T07:23:19.955Z,9.719100
2022-10-05T07:24:19.941Z,9.718897
2022-10-05T07:25:19.923Z,9.719123
2022-10-05T07:26:19.900Z,9.719213
2022-10-05T07:27:19.897Z,9.719091
2022-10-05T07:28:19.943Z,9.719074
2022-10-05T07:29:19.892Z,9.719254
2022-10-05T07:30:19.872Z,9.718940
2022-10-05T07:31:19.910Z,9.719184
2022-10-05T07:32:19.852Z,9.719191
2022-10-05T07:33:19.855Z,9.719506
2022-10-05T07:34:19.847Z,9.719720
2022-10-05T07:35:19.824Z,9.719705
2022-10-05T07:36:19.830Z,9.720203
2022-10-05T07:37:19.810Z,9.719574
2022-10-05T07:38:19.854Z,9.719780
2022-10-05T07:39:20.269Z,9.719790
2022-10-05T07:40:19.783Z,9.719588
2022-10-05T07:41:19.791Z,9.719920
2022-10-05T07:42:19.755Z,9.719934
2022-10-05T07:43:19.738Z,9.720062
2022-10-05T07:44:19.733Z,9.720073
2022-10-05T07:45:19.720Z,9.720017
2022-10-05T07:46:19.782Z,9.720043
2022-10-05T07:47:19.704Z,9.720494
2022-10-05T07:48:19.724Z,9.719930
2022-10-05T07:49:19.688Z,9.720125
2022-10-05T07:50:19.679Z,9.719703
2022-10-05T07:51:19.657Z,9.719551
2022-10-05T07:52:19.635Z,9.719801
2022-10-05T07:53:20.656Z,9.719517
2022-10-05T07:54:19.632Z,9.719544
2022-10-05T07:55:19.616Z,9.719227
2022-10-05T07:56:19.616Z,9.719658
2022-10-05T07:57:19.588Z,9.719438
2022-10-05T07:58:19.602Z,9.719430
2022-10-05T07:59:19.588Z,9.719398
2022-10-05T08:00:19.563Z,9.719354
2022-10-05T08:01:19.547Z,9.719339
2022-10-05T08:02:19.686Z,9.719084
2022-10-05T08:03:19.625Z,9.718822
2022-10-05T08:04:19.521Z,9.719143
2022-10-05T08:05:19.509Z,9.719331
2022-10-05T08:06:19.491Z,9.719344
2022-10-05T08:07:19.568Z,9.719378
2022-10-05T08:08:20.427Z,9.719369
2022-10-05T08:09:19.469Z,9.719202
2022-10-05T08:10:19.482Z,9.719146
2022-10-05T08:11:19.432Z,9.719066
2022-10-05T08:12:19.438Z,9.719289
2022-10-05T08:13:19.426Z,9.719403
2022-10-05T08:14:19.431Z,9.719361
2022-10-05T08:15:19.403Z,9.719432
2022-10-05T08:16:19.458Z,9.719475
2022-10-05T08:17:24.001Z,9.719387
2022-10-05T08:18:20.378Z,9.719138
2022-10-05T08:19:19.371Z,9.719241
2022-10-05T08:20:19.373Z,9.719360
2022-10-05T08:21:19.341Z,9.719415
2022-10-05T08:22:19.331Z,9.719296
2022-10-05T08:23:51.330Z,9.719280
2022-10-05T08:24:19.323Z,9.719386
2022-10-05T08:25:19.299Z,9.719481
2022-10-05T08:26:19.299Z,9.719711
2022-10-05T08:27:19.281Z,9.719341
2022-10-05T08:28:19.367Z,9.719211
2022-10-05T08:29:19.274Z,9.719205
2022-10-05T08:30:19.270Z,9.719232
2022-10-05T08:31:19.282Z,9.719298
2022-10-05T08:32:19.245Z,9.719508
2022-10-05T08:33:19.249Z,9.719070
2022-10-05T08:34:19.243Z,9.718917
2022-10-05T08:35:19.199Z,9.719245
2022-10-05T08:36:19.209Z,9.719154
2022-10-05T08:37:19.182Z,9.719184
2022-10-05T08:38:19.178Z,9.719296
2022-10-05T08:39:19.182Z,9.719192
2022-10-05T08:40:19.156Z,9.719270
2022-10-05T08:41:19.146Z,9.719282
2022-10-05T08:42:19.130Z,9.719407
2022-10-05T08:43:19.132Z,9.718500
2022-10-05T08:44:19.127Z,9.719289
2022-10-05T08:45:19.097Z,9.719315
2022-10-05T08:46:19.129Z,9.719216
2022-10-05T08:47:19.103Z,9.719239
2022-10-05T08:48:19.080Z,9.719209
2022-10-05T08:49:19.053Z,9.719060
2022-10-05T08:50:19.135Z,9.719167
2022-10-05T08:51:19.039Z,9.719064
2022-10-05T08:52:19.056Z,9.719208
2022-10-05T08:53:19.017Z,9.719304
2022-10-05T08:54:19.007Z,9.719272
2022-10-05T08:55:19.007Z,9.719240
2022-10-05T08:56:20.899Z,9.719332
2022-10-05T08:57:20.003Z,9.719289
2022-10-05T08:58:18.971Z,9.719235
2022-10-05T08:59:18.958Z,9.719325
2022-10-05T09:00:19.034Z,9.719278
2022-10-05T09:01:18.996Z,9.719150
2022-10-05T09:02:18.973Z,9.719173
2022-10-05T09:03:18.952Z,9.719133
2022-10-05T09:04:18.914Z,9.719114
2022-10-05T09:05:18.911Z,9.719213
2022-10-05T09:06:18.896Z,9.719236
2022-10-05T09:07:18.879Z,9.719160
2022-10-05T09:08:18.892Z,9.719147
2022-10-05T09:09:18.875Z,9.719179
2022-10-05T09:10:18.971Z,9.719213
2022-10-05T09:11:18.840Z,9.719231
2022-10-05T09:12:18.826Z,9.719283
2022-10-05T09:13:18.816Z,9.719225
2022-10-05T09:14:18.801Z,9.719213
2022-10-05T09:15:25.779Z,9.719215
2022-10-05T09:16:19.855Z,9.719263
2022-10-05T09:17:18.788Z,9.719237
2022-10-05T09:18:18.777Z,9.719266
2022-10-05T09:19:18.756Z,9.719263
2022-10-05T09:20:18.776Z,9.719303
2022-10-05T09:21:18.763Z,9.719292
2022-10-05T09:22:18.733Z,9.719242
2022-10-05T09:23:18.713Z,9.719247
2022-10-05T09:24:18.703Z,9.719193
2022-10-05T09:25:18.690Z,9.719262
2022-10-05T09:26:18.746Z,9.719288
2022-10-05T09:27:18.685Z,9.719233
2022-10-05T09:28:18.714Z,9.719205
2022-10-05T09:29:18.655Z,9.719252
2022-10-05T09:30:18.728Z,9.719264
2022-10-05T09:31:18.730Z,9.719247
2022-10-05T09:32:18.627Z,9.719262
2022-10-05T09:33:18.614Z,9.719164
2022-10-05T09:34:18.608Z,9.719274
2022-10-05T09:35:18.627Z,9.719134
2022-10-05T09:36:18.581Z,9.719180
2022-10-05T09:37:18.590Z,9.719261
2022-10-05T09:38:18.555Z,9.719260
2022-10-05T09:39:18.559Z,9.719337
2022-10-05T09:40:18.571Z,9.719316
2022-10-05T09:41:18.528Z,9.719284
2022-10-05T09:42:18.540Z,9.719307
2022-10-05T09:43:18.515Z,9.719265
2022-10-05T09:44:18.501Z,9.719193
2022-10-05T09:45:21.371Z,9.719225
2022-10-05T09:46:19.547Z,9.719210
2022-10-05T09:47:18.485Z,9.719227
2022-10-05T09:48:18.485Z,9.719213
2022-10-05T09:49:18.461Z,9.719275
2022-10-05T09:50:18.580Z,9.719296
2022-10-05T09:51:18.434Z,9.719282
2022-10-05T09:52:19.219Z,9.719258
2022-10-05T09:53:19.413Z,9.719193
2022-10-05T09:54:18.414Z,9.719211
2022-10-05T09:55:18.423Z,9.719213
2022-10-05T09:56:18.440Z,9.719177
2022-10-05T09:57:18.379Z,9.719180
2022-10-05T09:58:18.362Z,9.719234
2022-10-05T09:59:18.359Z,9.719221
2022-10-05T10:00:18.400Z,9.718974
2022-10-05T10:01:32.478Z,9.718949
2022-10-05T10:02:19.453Z,9.719053
2022-10-05T10:03:18.418Z,9.719169
2022-10-05T10:04:18.307Z,9.719280
2022-10-05T10:05:18.285Z,9.719259
2022-10-05T10:06:18.315Z,9.719200
2022-10-05T10:07:18.269Z,9.719081
2022-10-05T10:08:18.321Z,9.719091
2022-10-05T10:09:18.260Z,9.719297
2022-10-05T10:10:18.251Z,9.718984
2022-10-05T10:11:18.225Z,9.719023
2022-10-05T10:12:18.241Z,9.719179
2022-10-05T10:13:18.227Z,9.719296
2022-10-05T10:14:18.207Z,9.719350
2022-10-05T10:15:18.177Z,9.719327
2022-10-05T10:16:18.225Z,9.719103
2022-10-05T10:17:18.182Z,9.719254
2022-10-05T10:18:18.160Z,9.719189
2022-10-05T10:19:18.145Z,9.719372
2022-10-05T10:20:18.259Z,9.719171
2022-10-05T10:21:18.139Z,9.719025
2022-10-05T10:22:18.121Z,9.719234
2022-10-05T10:23:18.132Z,9.719099
2022-10-05T10:24:18.112Z,9.719246
2022-10-05T10:25:18.092Z,9.719321
2022-10-05T10:26:18.093Z,9.719157
2022-10-05T10:27:18.084Z,9.719324
2022-10-05T10:28:18.137Z,9.719195
2022-10-05T10:29:19.082Z,9.719417
2022-10-05T10:30:18.041Z,9.719371
2022-10-05T10:31:18.114Z,9.718952
2022-10-05T10:32:18.020Z,9.718668
2022-10-05T10:33:18.032Z,9.719043
2022-10-05T10:34:18.000Z,9.719116
2022-10-05T10:35:18.083Z,9.718994
2022-10-05T10:36:17.987Z,9.718934
2022-10-05T10:37:17.991Z,9.719242
2022-10-05T10:38:17.971Z,9.719235
2022-10-05T10:39:17.948Z,9.719281
2022-10-05T10:40:17.939Z,9.719249
2022-10-05T10:41:17.942Z,9.719276
2022-10-05T10:42:20.467Z,9.719297
2022-10-05T10:43:17.904Z,9.719048
2022-10-05T10:44:17.902Z,9.719146
2022-10-05T10:45:17.898Z,9.718903
2022-10-05T10:46:17.957Z,9.719103
2022-10-05T10:47:17.896Z,9.719126
2022-10-05T10:48:17.857Z,9.719107
2022-10-05T10:49:17.875Z,9.719057
2022-10-05T10:50:17.861Z,9.719178
2022-10-05T10:51:17.887Z,9.718851
2022-10-05T10:52:17.822Z,9.718983
2022-10-05T10:53:17.843Z,9.718839
2022-10-05T10:54:17.808Z,9.718973
2022-10-05T10:55:17.802Z,9.719186
2022-10-05T10:56:17.776Z,9.719027
2022-10-05T10:57:17.770Z,9.719096
2022-10-05T10:58:17.821Z,9.719212
2022-10-05T10:59:17.749Z,9.719282
2022-10-05T11:00:17.732Z,9.719232
2022-10-05T11:01:17.784Z,9.719324
2022-10-05T11:02:17.784Z,9.719073
2022-10-05T11:03:17.790Z,9.719161
2022-10-05T11:04:17.716Z,9.719304
2022-10-05T11:05:17.689Z,9.719050
2022-10-05T11:06:17.678Z,9.719304
2022-10-05T11:07:17.677Z,9.719310
2022-10-05T11:08:17.662Z,9.719163
2022-10-05T11:09:17.657Z,9.719188
2022-10-05T11:10:17.643Z,9.719216
2022-10-05T11:11:17.629Z,9.719161
2022-10-05T11:12:17.617Z,9.719136
2022-10-05T11:13:17.626Z,9.719149
2022-10-05T11:14:17.583Z,9.719137
2022-10-05T11:15:17.581Z,9.719107
2022-10-05T11:16:19.565Z,9.719186
2022-10-05T11:17:17.579Z,9.719131
2022-10-05T11:18:17.605Z,9.719192
2022-10-05T11:19:17.543Z,9.719171
2022-10-05T11:20:17.539Z,9.719057
2022-10-05T11:21:17.531Z,9.718722
2022-10-05T11:22:17.531Z,9.718838
2022-10-05T11:23:17.604Z,9.719021
2022-10-05T11:24:17.534Z,9.719082
2022-10-05T11:25:17.487Z,9.719024
2022-10-05T11:26:17.482Z,9.718894
2022-10-05T11:27:17.495Z,9.719029
2022-10-05T11:28:17.493Z,9.719078
2022-10-05T11:29:17.464Z,9.719300
2022-10-05T11:30:17.457Z,9.719283
2022-10-05T11:31:17.473Z,9.719284
2022-10-05T11:32:17.431Z,9.719261
2022-10-05T11:33:17.481Z,9.719262
2022-10-05T11:34:17.409Z,9.719035
2022-10-05T11:35:17.406Z,9.718925
2022-10-05T11:36:17.382Z,9.719143
2022-10-05T11:37:17.383Z,9.719256
2022-10-05T11:38:17.381Z,9.719160
2022-10-05T11:39:17.370Z,9.719018
2022-10-05T11:40:17.344Z,9.718985
2022-10-05T11:41:17.355Z,9.719215
2022-10-05T11:42:17.329Z,9.719262
2022-10-05T11:43:17.315Z,9.719431
2022-10-05T11:44:17.309Z,9.719410